sensor_id;sensor_type;location;lat;lon;timestamp;pressure;altitude;pressure_sealevel;temperature;humidity
28927;BME280;16038;47.692;9.400;2022-07-03T00:02:06;96951.50;;;16.10;100.00
28927;BME280;16038;47.692;9.400;2022-07-03T00:04:32;96945.97;;;16.10;100.00
28927;BME280;16038;47.692;9.400;2022-07-03T00:06:57;96944.00;;;16.07;100.00
28927;BME280;16038;47.692;9.400;2022-07-03T00:09:23;96948.34;;;16.01;100.00
28927;BME280;16038;47.692;9.400;2022-07-03T00:11:48;96953.06;;;15.93;100.00
28927;BME280;16038;47.692;9.400;2022-07-03T00:14:14;96949.16;;;15.87;100.00
28927;BME280;16038;47.692;9.400;2022-07-03T00:16:40;96951.50;;;15.85;100.00
28927;BME280;16038;47.692;9.400;2022-07-03T00:19:05;96954.66;;;15.83;100.00
28927;BME280;16038;47.692;9.400;2022-07-03T00:21:45;96949.53;;;15.82;100.00
28927;BME280;16038;47.692;9.400;2022-07-03T00:24:19;96944.00;;;15.82;100.00
28927;BME280;16038;47.692;9.400;2022-07-03T00:26:50;96952.69;;;15.84;100.00
28927;BME280;16038;47.692;9.400;2022-07-03T00:29:17;96947.16;;;15.80;100.00
28927;BME280;16038;47.692;9.400;2022-07-03T00:31:43;96951.13;;;15.79;100.00
28927;BME280;16038;47.692;9.400;2022-07-03T00:34:11;96949.16;;;15.76;100.00
28927;BME280;16038;47.692;9.400;2022-07-03T00:36:40;96942.81;;;15.68;100.00
28927;BME280;16038;47.692;9.400;2022-07-03T00:39:06;96943.19;;;15.35;100.00
28927;BME280;16038;47.692;9.400;2022-07-03T00:41:35;96940.34;;;15.02;100.00
28927;BME280;16038;47.692;9.400;2022-07-03T00:44:01;96942.66;;;14.79;100.00
28927;BME280;16038;47.692;9.400;2022-07-03T00:46:28;96941.84;;;14.82;100.00
28927;BME280;16038;47.692;9.400;2022-07-03T00:48:55;96938.75;;;14.98;100.00
28927;BME280;16038;47.692;9.400;2022-07-03T00:51:30;96937.22;;;15.07;100.00
28927;BME280;16038;47.692;9.400;2022-07-03T00:53:57;96945.91;;;15.17;100.00
28927;BME280;16038;47.692;9.400;2022-07-03T00:56:26;96945.53;;;15.25;100.00
28927;BME280;16038;47.692;9.400;2022-07-03T00:58:54;96947.91;;;15.34;100.00
28927;BME280;16038;47.692;9.400;2022-07-03T01:01:22;96951.09;;;15.47;100.00
28927;BME280;16038;47.692;9.400;2022-07-03T01:03:48;96949.50;;;15.49;100.00
28927;BME280;16038;47.692;9.400;2022-07-03T01:06:19;96948.72;;;15.49;100.00
28927;BME280;16038;47.692;9.400;2022-07-03T01:08:51;96957.78;;;15.46;100.00
28927;BME280;16038;47.692;9.400;2022-07-03T01:16:34;96949.09;;;15.40;100.00
28927;BME280;16038;47.692;9.400;2022-07-03T01:19:27;96949.09;;;15.33;100.00
28927;BME280;16038;47.692;9.400;2022-07-03T01:30:12;96935.28;;;15.22;100.00
28927;BME280;16038;47.692;9.400;2022-07-03T01:32:43;96945.53;;;15.25;100.00
28927;BME280;16038;47.692;9.400;2022-07-03T01:35:12;96936.03;;;15.19;100.00
28927;BME280;16038;47.692;9.400;2022-07-03T01:37:39;96940.34;;;14.99;100.00
28927;BME280;16038;47.692;9.400;2022-07-03T01:40:07;96951.69;;;14.76;100.00
28927;BME280;16038;47.692;9.400;2022-07-03T01:42:34;96946.81;;;14.54;100.00
28927;BME280;16038;47.692;9.400;2022-07-03T01:45:00;96940.50;;;14.47;100.00
28927;BME280;16038;47.692;9.400;2022-07-03T01:47:28;96942.84;;;14.45;100.00
28927;BME280;16038;47.692;9.400;2022-07-03T01:49:54;96942.88;;;14.52;100.00
28927;BME280;16038;47.692;9.400;2022-07-03T01:52:21;96944.88;;;14.55;100.00
28927;BME280;16038;47.692;9.400;2022-07-03T01:54:48;96950.75;;;14.50;100.00
28927;BME280;16038;47.692;9.400;2022-07-03T01:57:15;96945.34;;;14.64;100.00
28927;BME280;16038;47.692;9.400;2022-07-03T01:59:41;96949.28;;;14.70;100.00
28927;BME280;16038;47.692;9.400;2022-07-03T02:02:09;96947.75;;;14.73;100.00
28927;BME280;16038;47.692;9.400;2022-07-03T02:04:44;96944.56;;;14.67;100.00
28927;BME280;16038;47.692;9.400;2022-07-03T02:09:50;96954.31;;;14.54;100.00
28927;BME280;16038;47.692;9.400;2022-07-03T02:12:22;96954.38;;;14.58;100.00
28927;BME280;16038;47.692;9.400;2022-07-03T02:15:02;96957.97;;;14.76;100.00
28927;BME280;16038;47.692;9.400;2022-07-03T02:17:38;96960.78;;;14.87;100.00
28927;BME280;16038;47.692;9.400;2022-07-03T02:20:08;96963.94;;;14.89;100.00
28927;BME280;16038;47.692;9.400;2022-07-03T02:22:38;96972.19;;;14.89;100.00
28927;BME280;16038;47.692;9.400;2022-07-03T02:25:07;96965.91;;;14.88;100.00
28927;BME280;16038;47.692;9.400;2022-07-03T02:27:42;96968.28;;;14.90;100.00
28927;BME280;16038;47.692;9.400;2022-07-03T02:30:11;96968.69;;;14.92;100.00
28927;BME280;16038;47.692;9.400;2022-07-03T02:32:42;96967.09;;;14.87;100.00
28927;BME280;16038;47.692;9.400;2022-07-03T02:35:13;96967.06;;;14.77;100.00
28927;BME280;16038;47.692;9.400;2022-07-03T02:37:45;96969.25;;;14.49;100.00
28927;BME280;16038;47.692;9.400;2022-07-03T02:43:23;96973.72;;;14.06;100.00
28927;BME280;16038;47.692;9.400;2022-07-03T02:46:06;96980.31;;;13.94;100.00
28927;BME280;16038;47.692;9.400;2022-07-03T02:48:58;96987.47;;;14.06;100.00
28927;BME280;16038;47.692;9.400;2022-07-03T02:51:33;96977.56;;;13.94;100.00
28927;BME280;16038;47.692;9.400;2022-07-03T02:54:08;96983.34;;;13.78;100.00
28927;BME280;16038;47.692;9.400;2022-07-03T03:05:15;96980.88;;;13.28;100.00
28927;BME280;16038;47.692;9.400;2022-07-03T03:08:15;96986.03;;;12.96;100.00
28927;BME280;16038;47.692;9.400;2022-07-03T03:10:43;96991.84;;;12.91;100.00
28927;BME280;16038;47.692;9.400;2022-07-03T03:13:12;96991.06;;;12.90;100.00
28927;BME280;16038;47.692;9.400;2022-07-03T03:15:42;96987.63;;;12.97;100.00
28927;BME280;16038;47.692;9.400;2022-07-03T03:18:12;96996.50;;;13.17;100.00
28927;BME280;16038;47.692;9.400;2022-07-03T03:20:38;96994.69;;;13.32;100.00
28927;BME280;16038;47.692;9.400;2022-07-03T03:23:13;96993.34;;;13.52;100.00
28927;BME280;16038;47.692;9.400;2022-07-03T03:25:41;96994.22;;;13.64;100.00
28927;BME280;16038;47.692;9.400;2022-07-03T03:28:07;97002.59;;;13.74;100.00
28927;BME280;16038;47.692;9.400;2022-07-03T03:30:35;96994.75;;;13.80;100.00
28927;BME280;16038;47.692;9.400;2022-07-03T03:33:01;96996.75;;;13.83;100.00
28927;BME280;16038;47.692;9.400;2022-07-03T03:35:26;97000.22;;;13.76;100.00
28927;BME280;16038;47.692;9.400;2022-07-03T03:37:53;97003.25;;;13.64;100.00
28927;BME280;16038;47.692;9.400;2022-07-03T03:40:19;97005.13;;;13.53;100.00
28927;BME280;16038;47.692;9.400;2022-07-03T03:42:44;97005.13;;;13.53;100.00
28927;BME280;16038;47.692;9.400;2022-07-03T03:45:10;97006.00;;;13.61;100.00
28927;BME280;16038;47.692;9.400;2022-07-03T03:47:36;97008.00;;;13.64;100.00
28927;BME280;16038;47.692;9.400;2022-07-03T03:50:02;97012.75;;;13.67;100.00
28927;BME280;16038;47.692;9.400;2022-07-03T03:52:29;97018.66;;;13.69;100.00
28927;BME280;16038;47.692;9.400;2022-07-03T03:54:55;97017.59;;;13.84;100.00
28927;BME280;16038;47.692;9.400;2022-07-03T03:57:23;97014.84;;;13.84;100.00
28927;BME280;16038;47.692;9.400;2022-07-03T03:59:49;97012.88;;;13.81;100.00
28927;BME280;16038;47.692;9.400;2022-07-03T04:02:15;97021.94;;;13.85;100.00
28927;BME280;16038;47.692;9.400;2022-07-03T04:04:40;97021.69;;;14.01;100.00
28927;BME280;16038;47.692;9.400;2022-07-03T04:07:06;97019.91;;;14.27;100.00
28927;BME280;16038;47.692;9.400;2022-07-03T04:09:32;97029.88;;;14.46;100.00
28927;BME280;16038;47.692;9.400;2022-07-03T04:11:57;97033.16;;;14.62;100.00
28927;BME280;16038;47.692;9.400;2022-07-03T04:14:23;97029.66;;;14.76;100.00
28927;BME280;16038;47.692;9.400;2022-07-03T04:16:49;97032.41;;;14.72;100.00
28927;BME280;16038;47.692;9.400;2022-07-03T04:19:14;97034.50;;;14.97;100.00
28927;BME280;16038;47.692;9.400;2022-07-03T04:21:39;97043.59;;;15.08;100.00
28927;BME280;16038;47.692;9.400;2022-07-03T04:24:06;97044.50;;;15.34;100.00
28927;BME280;16038;47.692;9.400;2022-07-03T04:26:31;97045.72;;;15.55;100.00
28927;BME280;16038;47.692;9.400;2022-07-03T04:28:57;97035.88;;;15.68;100.00
28927;BME280;16038;47.692;9.400;2022-07-03T04:31:22;97038.69;;;15.79;100.00
28927;BME280;16038;47.692;9.400;2022-07-03T04:33:47;97037.16;;;15.99;100.00
28927;BME280;16038;47.692;9.400;2022-07-03T04:36:14;97039.53;;;16.19;100.00
28927;BME280;16038;47.692;9.400;2022-07-03T04:38:39;97033.56;;;16.28;100.00
28927;BME280;16038;47.692;9.400;2022-07-03T04:41:05;97038.31;;;16.13;100.00
28927;BME280;16038;47.692;9.400;2022-07-03T04:43:30;97035.94;;;15.93;100.00
28927;BME280;16038;47.692;9.400;2022-07-03T04:45:56;97038.69;;;16.22;100.00
28927;BME280;16038;47.692;9.400;2022-07-03T04:48:21;97037.91;;;16.43;100.00
28927;BME280;16038;47.692;9.400;2022-07-03T04:50:47;97035.84;;;16.79;100.00
28927;BME280;16038;47.692;9.400;2022-07-03T04:53:12;97040.78;;;18.05;100.00
28927;BME280;16038;47.692;9.400;2022-07-03T04:55:37;97042.06;;;20.07;100.00
28927;BME280;16038;47.692;9.400;2022-07-03T04:58:03;97051.66;;;20.97;94.26
28927;BME280;16038;47.692;9.400;2022-07-03T05:00:29;97053.50;;;21.24;92.94
28927;BME280;16038;47.692;9.400;2022-07-03T05:02:54;97048.31;;;22.81;85.25
28927;BME280;16038;47.692;9.400;2022-07-03T05:05:19;97045.63;;;24.64;74.71
28927;BME280;16038;47.692;9.400;2022-07-03T05:07:45;97057.47;;;25.69;64.65
28927;BME280;16038;47.692;9.400;2022-07-03T05:10:10;97058.47;;;26.16;61.45
28927;BME280;16038;47.692;9.400;2022-07-03T05:12:36;97054.19;;;27.81;55.97
28927;BME280;16038;47.692;9.400;2022-07-03T05:15:02;97061.47;;;29.12;50.58
28927;BME280;16038;47.692;9.400;2022-07-03T05:17:28;97062.63;;;30.04;47.29
28927;BME280;16038;47.692;9.400;2022-07-03T05:19:53;97071.59;;;29.73;46.67
28927;BME280;16038;47.692;9.400;2022-07-03T05:22:38;97071.78;;;29.69;47.61
28927;BME280;16038;47.692;9.400;2022-07-03T05:25:04;97066.09;;;29.25;48.18
28927;BME280;16038;47.692;9.400;2022-07-03T05:27:30;97063.66;;;29.32;48.68
28927;BME280;16038;47.692;9.400;2022-07-03T05:29:55;97065.22;;;30.58;46.08
28927;BME280;16038;47.692;9.400;2022-07-03T05:32:21;97074.28;;;30.12;46.25
28927;BME280;16038;47.692;9.400;2022-07-03T05:34:46;97082.66;;;30.06;45.86
28927;BME280;16038;47.692;9.400;2022-07-03T05:37:12;97074.38;;;29.28;49.16
28927;BME280;16038;47.692;9.400;2022-07-03T05:39:37;97078.47;;;30.17;47.19
28927;BME280;16038;47.692;9.400;2022-07-03T05:42:03;97076.13;;;29.41;47.15
28927;BME280;16038;47.692;9.400;2022-07-03T05:44:29;97083.75;;;28.86;50.54
28927;BME280;16038;47.692;9.400;2022-07-03T05:46:55;97075.81;;;29.39;48.14
28927;BME280;16038;47.692;9.400;2022-07-03T05:49:21;97081.59;;;29.89;46.88
28927;BME280;16038;47.692;9.400;2022-07-03T05:51:46;97085.16;;;30.69;46.20
28927;BME280;16038;47.692;9.400;2022-07-03T05:54:12;97083.22;;;30.40;44.52
28927;BME280;16038;47.692;9.400;2022-07-03T05:56:38;97068.25;;;29.45;49.00
28927;BME280;16038;47.692;9.400;2022-07-03T05:59:03;97079.06;;;31.91;42.98
28927;BME280;16038;47.692;9.400;2022-07-03T06:01:29;97078.72;;;32.84;41.66
28927;BME280;16038;47.692;9.400;2022-07-03T06:03:55;97084.66;;;33.63;37.53
28927;BME280;16038;47.692;9.400;2022-07-03T06:06:20;97080.09;;;34.45;37.67
28927;BME280;16038;47.692;9.400;2022-07-03T06:08:46;97088.19;;;32.32;41.53
28927;BME280;16038;47.692;9.400;2022-07-03T06:11:11;97081.53;;;30.48;45.70
28927;BME280;16038;47.692;9.400;2022-07-03T06:13:36;97076.72;;;28.57;52.39
28927;BME280;16038;47.692;9.400;2022-07-03T06:16:02;97078.00;;;28.56;55.40
28927;BME280;16038;47.692;9.400;2022-07-03T06:18:28;97076.63;;;27.30;59.02
28927;BME280;16038;47.692;9.400;2022-07-03T06:20:53;97072.44;;;28.38;55.84
28927;BME280;16038;47.692;9.400;2022-07-03T06:23:18;97075.00;;;29.92;50.39
28927;BME280;16038;47.692;9.400;2022-07-03T06:25:44;97078.63;;;31.98;45.26
28927;BME280;16038;47.692;9.400;2022-07-03T06:28:09;97089.50;;;31.27;46.09
28927;BME280;16038;47.692;9.400;2022-07-03T06:30:35;97075.47;;;32.16;43.96
28927;BME280;16038;47.692;9.400;2022-07-03T06:33:01;97081.31;;;33.53;40.69
28927;BME280;16038;47.692;9.400;2022-07-03T06:35:26;97083.09;;;32.05;43.65
28927;BME280;16038;47.692;9.400;2022-07-03T06:37:52;97079.72;;;29.41;49.07
28927;BME280;16038;47.692;9.400;2022-07-03T06:40:17;97081.66;;;32.20;44.27
28927;BME280;16038;47.692;9.400;2022-07-03T06:42:43;97070.75;;;32.88;41.53
28927;BME280;16038;47.692;9.400;2022-07-03T06:45:09;97073.63;;;32.13;41.44
28927;BME280;16038;47.692;9.400;2022-07-03T06:47:38;97075.41;;;31.32;43.01
28927;BME280;16038;47.692;9.400;2022-07-03T06:50:05;97070.78;;;32.13;41.83
28927;BME280;16038;47.692;9.400;2022-07-03T06:52:31;97072.78;;;33.65;37.92
28927;BME280;16038;47.692;9.400;2022-07-03T06:54:56;97067.09;;;33.42;38.55
28927;BME280;16038;47.692;9.400;2022-07-03T06:57:22;97072.81;;;33.70;38.56
28927;BME280;16038;47.692;9.400;2022-07-03T06:59:47;97066.41;;;34.38;35.25
28927;BME280;16038;47.692;9.400;2022-07-03T07:02:13;97059.13;;;34.42;35.79
28927;BME280;16038;47.692;9.400;2022-07-03T07:04:39;97061.75;;;32.09;40.39
28927;BME280;16038;47.692;9.400;2022-07-03T07:07:04;97067.47;;;32.15;39.49
28927;BME280;16038;47.692;9.400;2022-07-03T07:09:30;97060.66;;;29.21;47.60
28927;BME280;16038;47.692;9.400;2022-07-03T07:11:55;97062.41;;;31.67;42.64
28927;BME280;16038;47.692;9.400;2022-07-03T07:14:21;97054.66;;;33.23;39.13
28927;BME280;16038;47.692;9.400;2022-07-03T07:16:46;97058.59;;;34.55;36.83
28927;BME280;16038;47.692;9.400;2022-07-03T07:19:12;97058.59;;;33.48;37.64
28927;BME280;16038;47.692;9.400;2022-07-03T07:21:37;97065.81;;;34.62;35.84
28927;BME280;16038;47.692;9.400;2022-07-03T07:24:03;97060.47;;;34.24;35.65
28927;BME280;16038;47.692;9.400;2022-07-03T07:26:29;97060.19;;;33.88;37.02
28927;BME280;16038;47.692;9.400;2022-07-03T07:28:54;97061.22;;;35.17;34.77
28927;BME280;16038;47.692;9.400;2022-07-03T07:31:20;97060.03;;;35.49;34.28
28927;BME280;16038;47.692;9.400;2022-07-03T07:33:45;97055.25;;;34.45;35.53
28927;BME280;16038;47.692;9.400;2022-07-03T07:36:11;97051.94;;;32.96;38.74
28927;BME280;16038;47.692;9.400;2022-07-03T07:38:36;97059.69;;;34.13;36.41
28927;BME280;16038;47.692;9.400;2022-07-03T07:41:02;97046.47;;;34.49;34.94
28927;BME280;16038;47.692;9.400;2022-07-03T07:43:27;97048.06;;;33.82;36.71
28927;BME280;16038;47.692;9.400;2022-07-03T07:45:53;97054.25;;;33.98;36.68
28927;BME280;16038;47.692;9.400;2022-07-03T07:48:18;97052.41;;;32.84;38.36
28927;BME280;16038;47.692;9.400;2022-07-03T07:50:44;97047.97;;;32.71;39.20
28927;BME280;16038;47.692;9.400;2022-07-03T07:53:09;97051.25;;;32.21;39.85
28927;BME280;16038;47.692;9.400;2022-07-03T07:55:35;97046.56;;;32.55;39.39
28927;BME280;16038;47.692;9.400;2022-07-03T07:58:00;97046.69;;;32.29;40.68
28927;BME280;16038;47.692;9.400;2022-07-03T08:00:26;97048.47;;;30.55;43.77
28927;BME280;16038;47.692;9.400;2022-07-03T08:02:52;97040.09;;;31.80;41.97
28927;BME280;16038;47.692;9.400;2022-07-03T08:05:35;97043.75;;;31.80;40.89
28927;BME280;16038;47.692;9.400;2022-07-03T08:08:07;97044.06;;;31.88;41.40
28927;BME280;16038;47.692;9.400;2022-07-03T08:10:37;97046.03;;;31.03;42.60
28927;BME280;16038;47.692;9.400;2022-07-03T08:13:03;97047.94;;;30.92;42.63
28927;BME280;16038;47.692;9.400;2022-07-03T08:15:28;97044.53;;;29.81;44.76
28927;BME280;16038;47.692;9.400;2022-07-03T08:17:54;97038.09;;;29.66;45.58
28927;BME280;16038;47.692;9.400;2022-07-03T08:20:20;97039.44;;;29.26;46.17
28927;BME280;16038;47.692;9.400;2022-07-03T08:22:45;97039.16;;;28.85;47.03
28927;BME280;16038;47.692;9.400;2022-07-03T08:25:11;97048.41;;;29.39;46.90
28927;BME280;16038;47.692;9.400;2022-07-03T08:27:36;97044.91;;;28.90;46.79
28927;BME280;16038;47.692;9.400;2022-07-03T08:30:03;97044.94;;;29.05;46.26
28927;BME280;16038;47.692;9.400;2022-07-03T08:32:29;97038.19;;;29.27;45.85
28927;BME280;16038;47.692;9.400;2022-07-03T08:34:54;97033.66;;;27.99;48.68
28927;BME280;16038;47.692;9.400;2022-07-03T08:37:19;97032.75;;;28.99;47.21
28927;BME280;16038;47.692;9.400;2022-07-03T08:39:45;97027.63;;;29.12;44.13
28927;BME280;16038;47.692;9.400;2022-07-03T08:42:11;97029.91;;;29.38;44.92
28927;BME280;16038;47.692;9.400;2022-07-03T08:44:39;97025.63;;;29.72;44.72
28927;BME280;16038;47.692;9.400;2022-07-03T08:47:07;97017.88;;;30.18;42.78
28927;BME280;16038;47.692;9.400;2022-07-03T08:49:34;97027.41;;;29.85;43.30
28927;BME280;16038;47.692;9.400;2022-07-03T08:52:00;97025.53;;;30.47;43.35
28927;BME280;16038;47.692;9.400;2022-07-03T08:54:25;97030.97;;;30.51;42.87
28927;BME280;16038;47.692;9.400;2022-07-03T08:56:51;97017.66;;;30.21;42.26
28927;BME280;16038;47.692;9.400;2022-07-03T08:59:17;97016.78;;;29.35;44.97
28927;BME280;16038;47.692;9.400;2022-07-03T09:01:45;97013.97;;;29.65;44.99
28927;BME280;16038;47.692;9.400;2022-07-03T09:04:12;97024.84;;;29.72;43.97
28927;BME280;16038;47.692;9.400;2022-07-03T09:06:41;97017.28;;;29.48;43.81
28927;BME280;16038;47.692;9.400;2022-07-03T09:09:08;97019.91;;;29.37;43.77
28927;BME280;16038;47.692;9.400;2022-07-03T09:11:37;97019.16;;;28.73;46.35
28927;BME280;16038;47.692;9.400;2022-07-03T09:14:03;97012.19;;;28.35;48.02
28927;BME280;16038;47.692;9.400;2022-07-03T09:16:35;97007.97;;;29.03;46.32
28927;BME280;16038;47.692;9.400;2022-07-03T09:19:01;97012.41;;;29.34;44.66
28927;BME280;16038;47.692;9.400;2022-07-03T09:21:37;97011.34;;;29.46;44.91
28927;BME280;16038;47.692;9.400;2022-07-03T09:24:04;97015.22;;;29.19;45.66
28927;BME280;16038;47.692;9.400;2022-07-03T09:26:31;97015.91;;;29.88;41.99
28927;BME280;16038;47.692;9.400;2022-07-03T09:28:56;97011.44;;;28.83;42.85
28927;BME280;16038;47.692;9.400;2022-07-03T09:31:23;97009.84;;;29.96;42.14
28927;BME280;16038;47.692;9.400;2022-07-03T09:33:54;97013.19;;;29.34;42.96
28927;BME280;16038;47.692;9.400;2022-07-03T09:39:25;96998.44;;;30.05;42.08
28927;BME280;16038;47.692;9.400;2022-07-03T09:42:08;97010.44;;;30.35;41.10
28927;BME280;16038;47.692;9.400;2022-07-03T09:44:44;97004.31;;;30.78;42.17
28927;BME280;16038;47.692;9.400;2022-07-03T09:47:24;97002.41;;;31.10;40.82
28927;BME280;16038;47.692;9.400;2022-07-03T09:49:58;97001.66;;;29.98;43.79
28927;BME280;16038;47.692;9.400;2022-07-03T09:52:38;96995.84;;;30.78;40.18
28927;BME280;16038;47.692;9.400;2022-07-03T09:57:46;96981.03;;;31.09;38.90
28927;BME280;16038;47.692;9.400;2022-07-03T10:00:34;96977.81;;;30.75;40.70
28927;BME280;16038;47.692;9.400;2022-07-03T10:03:05;96979.75;;;30.28;42.33
28927;BME280;16038;47.692;9.400;2022-07-03T10:08:01;96980.53;;;31.11;40.09
28927;BME280;16038;47.692;9.400;2022-07-03T10:10:29;96987.66;;;31.27;39.12
28927;BME280;16038;47.692;9.400;2022-07-03T10:12:56;96983.81;;;30.83;40.48
28927;BME280;16038;47.692;9.400;2022-07-03T10:15:22;96984.56;;;31.04;41.33
28927;BME280;16038;47.692;9.400;2022-07-03T10:17:50;96981.22;;;31.26;39.22
28927;BME280;16038;47.692;9.400;2022-07-03T10:20:33;96986.25;;;30.49;39.89
28927;BME280;16038;47.692;9.400;2022-07-03T10:22:59;96979.63;;;30.99;39.65
28927;BME280;16038;47.692;9.400;2022-07-03T10:25:25;96975.66;;;31.37;39.42
28927;BME280;16038;47.692;9.400;2022-07-03T10:27:51;96978.03;;;31.76;38.78
28927;BME280;16038;47.692;9.400;2022-07-03T10:30:21;96977.75;;;31.42;37.74
28927;BME280;16038;47.692;9.400;2022-07-03T10:32:51;96979.25;;;30.65;37.43
28927;BME280;16038;47.692;9.400;2022-07-03T10:35:44;96973.94;;;30.52;37.18
28927;BME280;16038;47.692;9.400;2022-07-03T10:38:40;96975.28;;;30.57;36.78
28927;BME280;16038;47.692;9.400;2022-07-03T10:41:16;96973.16;;;30.52;38.37
28927;BME280;16038;47.692;9.400;2022-07-03T10:44:03;96966.66;;;30.66;37.57
28927;BME280;16038;47.692;9.400;2022-07-03T10:46:47;96971.31;;;30.69;38.00
28927;BME280;16038;47.692;9.400;2022-07-03T10:49:14;96973.06;;;30.87;36.14
28927;BME280;16038;47.692;9.400;2022-07-03T10:51:59;96969.94;;;31.32;37.73
28927;BME280;16038;47.692;9.400;2022-07-03T10:54:33;96968.22;;;31.14;37.63
28927;BME280;16038;47.692;9.400;2022-07-03T11:02:17;96959.19;;;29.42;39.39
28927;BME280;16038;47.692;9.400;2022-07-03T11:15:40;96954.47;;;29.98;39.42
28927;BME280;16038;47.692;9.400;2022-07-03T11:25:39;96937.19;;;30.31;36.12
28927;BME280;16038;47.692;9.400;2022-07-03T11:28:05;96936.09;;;30.70;34.73
28927;BME280;16038;47.692;9.400;2022-07-03T11:30:31;96935.50;;;30.60;36.14
28927;BME280;16038;47.692;9.400;2022-07-03T11:32:59;96928.47;;;30.76;35.00
28927;BME280;16038;47.692;9.400;2022-07-03T11:38:31;96921.78;;;30.33;35.61
28927;BME280;16038;47.692;9.400;2022-07-03T11:40:58;96919.59;;;30.63;34.35
28927;BME280;16038;47.692;9.400;2022-07-03T11:43:24;96916.81;;;29.71;32.98
28927;BME280;16038;47.692;9.400;2022-07-03T11:45:51;96911.22;;;29.42;35.31
28927;BME280;16038;47.692;9.400;2022-07-03T11:48:22;96902.47;;;29.40;36.99
28927;BME280;16038;47.692;9.400;2022-07-03T11:50:48;96908.06;;;29.84;36.25
28927;BME280;16038;47.692;9.400;2022-07-03T11:53:28;96902.78;;;30.33;35.13
28927;BME280;16038;47.692;9.400;2022-07-03T11:58:21;96905.75;;;30.91;32.42
28927;BME280;16038;47.692;9.400;2022-07-03T12:00:47;96895.31;;;30.77;32.25
28927;BME280;16038;47.692;9.400;2022-07-03T12:03:24;96899.03;;;29.80;33.69
28927;BME280;16038;47.692;9.400;2022-07-03T12:05:54;96889.75;;;28.85;36.87
28927;BME280;16038;47.692;9.400;2022-07-03T12:08:30;96886.16;;;29.29;37.07
28927;BME280;16038;47.692;9.400;2022-07-03T12:11:22;96893.53;;;30.12;34.51
28927;BME280;16038;47.692;9.400;2022-07-03T12:13:47;96890.00;;;30.38;31.67
28927;BME280;16038;47.692;9.400;2022-07-03T12:16:15;96887.66;;;30.57;34.15
28927;BME280;16038;47.692;9.400;2022-07-03T12:18:45;96884.34;;;30.17;41.17
28927;BME280;16038;47.692;9.400;2022-07-03T12:21:11;96883.88;;;29.98;39.59
28927;BME280;16038;47.692;9.400;2022-07-03T12:23:52;96881.66;;;29.87;42.86
28927;BME280;16038;47.692;9.400;2022-07-03T12:26:27;96880.06;;;29.51;43.17
28927;BME280;16038;47.692;9.400;2022-07-03T12:28:54;96865.41;;;29.47;43.48
28927;BME280;16038;47.692;9.400;2022-07-03T12:31:20;96871.94;;;28.78;42.26
28927;BME280;16038;47.692;9.400;2022-07-03T12:33:46;96868.72;;;29.01;45.75
28927;BME280;16038;47.692;9.400;2022-07-03T12:36:12;96875.34;;;29.12;41.73
28927;BME280;16038;47.692;9.400;2022-07-03T12:38:38;96880.50;;;29.14;42.04
28927;BME280;16038;47.692;9.400;2022-07-03T12:41:07;96867.97;;;29.00;44.11
28927;BME280;16038;47.692;9.400;2022-07-03T12:43:39;96867.97;;;29.00;44.16
28927;BME280;16038;47.692;9.400;2022-07-03T12:48:54;96874.09;;;28.84;43.22
28927;BME280;16038;47.692;9.400;2022-07-03T12:54:03;96865.75;;;28.74;42.47
28927;BME280;16038;47.692;9.400;2022-07-03T12:56:28;96869.41;;;28.95;41.75
28927;BME280;16038;47.692;9.400;2022-07-03T12:58:54;96867.38;;;29.11;41.74
28927;BME280;16038;47.692;9.400;2022-07-03T13:01:38;96847.56;;;29.05;39.57
28927;BME280;16038;47.692;9.400;2022-07-03T13:04:04;96854.16;;;29.32;39.54
28927;BME280;16038;47.692;9.400;2022-07-03T13:06:31;96854.06;;;29.26;40.16
28927;BME280;16038;47.692;9.400;2022-07-03T13:09:04;96855.94;;;29.14;42.46
28927;BME280;16038;47.692;9.400;2022-07-03T13:11:35;96847.47;;;29.14;41.84
28927;BME280;16038;47.692;9.400;2022-07-03T13:14:11;96847.66;;;29.61;39.13
28927;BME280;16038;47.692;9.400;2022-07-03T13:16:50;96848.97;;;30.01;36.60
28927;BME280;16038;47.692;9.400;2022-07-03T13:19:19;96842.28;;;29.99;35.80
28927;BME280;16038;47.692;9.400;2022-07-03T13:21:44;96841.66;;;30.09;36.28
28927;BME280;16038;47.692;9.400;2022-07-03T13:24:12;96843.19;;;30.31;35.13
28927;BME280;16038;47.692;9.400;2022-07-03T13:26:37;96842.06;;;30.43;35.46
28927;BME280;16038;47.692;9.400;2022-07-03T13:29:03;96836.84;;;30.36;36.04
28927;BME280;16038;47.692;9.400;2022-07-03T13:31:29;96842.06;;;30.43;35.74
28927;BME280;16038;47.692;9.400;2022-07-03T13:33:58;96840.00;;;30.44;34.92
28927;BME280;16038;47.692;9.400;2022-07-03T13:36:25;96835.19;;;30.50;35.58
28927;BME280;16038;47.692;9.400;2022-07-03T13:38:51;96837.34;;;30.61;35.24
28927;BME280;16038;47.692;9.400;2022-07-03T13:41:17;96833.97;;;30.57;35.00
28927;BME280;16038;47.692;9.400;2022-07-03T13:43:44;96827.91;;;30.69;35.77
28927;BME280;16038;47.692;9.400;2022-07-03T13:46:10;96819.44;;;30.69;36.68
28927;BME280;16038;47.692;9.400;2022-07-03T13:48:35;96820.72;;;30.42;38.47
28927;BME280;16038;47.692;9.400;2022-07-03T13:51:01;96818.44;;;30.73;36.41
28927;BME280;16038;47.692;9.400;2022-07-03T13:53:27;96815.22;;;30.59;36.45
28927;BME280;16038;47.692;9.400;2022-07-03T13:55:56;96810.78;;;30.79;35.49
28927;BME280;16038;47.692;9.400;2022-07-03T13:58:23;96816.28;;;30.62;35.77
28927;BME280;16038;47.692;9.400;2022-07-03T14:00:49;96809.78;;;30.56;36.41
28927;BME280;16038;47.692;9.400;2022-07-03T14:03:14;96816.25;;;30.56;35.04
28927;BME280;16038;47.692;9.400;2022-07-03T14:05:40;96805.13;;;30.79;34.38
28927;BME280;16038;47.692;9.400;2022-07-03T14:08:05;96806.97;;;30.82;34.06
28927;BME280;16038;47.692;9.400;2022-07-03T14:10:31;96797.16;;;30.77;35.59
28927;BME280;16038;47.692;9.400;2022-07-03T14:12:56;96798.47;;;30.82;35.24
28927;BME280;16038;47.692;9.400;2022-07-03T14:15:21;96795.38;;;30.80;37.42